Time;durP1;ratioP1;P1;durP2;ratioP2;P2;SDS_P1;SDS_P2;PMS_P1;PMS_P2;Temp;Humidity;BMP_temperature;BMP_pressure;BME280_temperature;BME280_humidity;BME280_pressure;Samples;Min_cycle;Max_cycle;Signal;HPM_P1;HPM_P2
2022/04/18 00:01:09;;;;;;;1999.90;999.90;;;10.50;59.50;;;;;;5036689;28;20208;-68
2022/04/18 00:03:35;;;;;;;1999.90;999.90;;;10.30;59.70;;;;;;5034910;28;20911;-68
2022/04/18 00:06:02;;;;;;;1999.90;999.90;;;10.30;62.60;;;;;;5033242;28;20291;-68
2022/04/18 00:08:27;;;;;;;1999.90;999.90;;;10.30;65.10;;;;;;5033374;28;20202;-67
2022/04/18 00:10:53;;;;;;;1999.90;999.90;;;10.20;69.30;;;;;;5033346;28;20417;-68
2022/04/18 00:13:18;;;;;;;1999.90;999.90;;;10.20;74.60;;;;;;5033305;28;20172;-68
2022/04/18 00:15:44;;;;;;;1999.90;999.90;;;10.20;73.60;;;;;;5032938;28;20230;-69
2022/04/18 00:18:10;;;;;;;1999.90;999.90;;;10.20;77.30;;;;;;5033263;28;20171;-68
2022/04/18 00:20:35;;;;;;;1999.90;999.90;;;10.20;77.70;;;;;;5033413;28;20172;-68
2022/04/18 00:23:01;;;;;;;1999.90;999.90;;;10.20;78.10;;;;;;5033162;28;20176;-67
2022/04/18 00:25:26;;;;;;;1999.90;999.90;;;10.10;76.80;;;;;;5032866;28;20270;-68
2022/04/18 00:27:52;;;;;;;1999.90;999.90;;;10.20;83.70;;;;;;5033036;28;20656;-68
2022/04/18 00:30:18;;;;;;;1999.90;999.90;;;10.10;80.30;;;;;;5033005;28;20170;-67
2022/04/18 00:32:43;;;;;;;1999.90;999.90;;;10.10;81.90;;;;;;5033210;28;20664;-68
2022/04/18 00:35:09;;;;;;;1999.90;999.90;;;10.00;80.40;;;;;;5032860;28;20696;-68
2022/04/18 00:37:36;;;;;;;1999.90;999.90;;;9.90;80.80;;;;;;5032782;28;20200;-68
2022/04/18 00:40:03;;;;;;;1999.90;999.90;;;9.90;80.20;;;;;;5032811;28;20651;-67
2022/04/18 00:42:29;;;;;;;1999.90;999.90;;;9.90;80.20;;;;;;5032640;28;20475;-68
2022/04/18 00:44:54;;;;;;;1999.90;999.90;;;9.90;83.60;;;;;;5032581;28;20410;-68
2022/04/18 00:47:20;;;;;;;1999.90;999.90;;;9.90;85.00;;;;;;5032618;28;20207;-68
2022/04/18 00:49:46;;;;;;;1999.90;999.90;;;9.90;86.40;;;;;;5032616;28;20184;-68
2022/04/18 00:52:11;;;;;;;1999.90;999.90;;;9.80;84.70;;;;;;5032636;28;20266;-67
2022/04/18 00:54:37;;;;;;;1999.90;999.90;;;9.80;85.10;;;;;;5032715;28;20183;-68
2022/04/18 00:57:03;;;;;;;1999.90;999.90;;;9.70;83.40;;;;;;5032637;28;20298;-68
2022/04/18 00:59:32;;;;;;;1999.90;999.90;;;9.60;84.90;;;;;;5032434;28;20554;-67
2022/04/18 01:01:57;;;;;;;1999.90;999.90;;;9.50;87.20;;;;;;5032336;28;20210;-69
2022/04/18 01:04:23;;;;;;;1999.90;999.90;;;9.50;86.60;;;;;;5032092;28;20487;-67
2022/04/18 01:06:49;;;;;;;1999.90;999.90;;;9.30;87.60;;;;;;5032209;28;20356;-70
2022/04/18 01:09:15;;;;;;;1999.90;999.90;;;9.20;91.20;;;;;;5032206;28;20496;-68
2022/04/18 01:11:41;;;;;;;1999.90;999.90;;;9.20;91.80;;;;;;5032207;28;20784;-67
2022/04/18 01:14:07;;;;;;;1999.90;999.90;;;9.20;92.70;;;;;;5032049;28;20412;-67
2022/04/18 01:16:33;;;;;;;1999.90;999.90;;;9.10;94.50;;;;;;5031974;28;20490;-68
2022/04/18 01:18:58;;;;;;;1999.90;999.90;;;9.00;93.90;;;;;;5032178;28;20501;-68
2022/04/18 01:21:25;;;;;;;1999.90;999.90;;;9.00;95.50;;;;;;5032163;28;20284;-68
2022/04/18 01:23:51;;;;;;;1999.90;999.90;;;9.00;97.10;;;;;;5032030;28;20183;-68
2022/04/18 01:29:01;;;;;;;1999.90;999.90;;;9.00;97.70;;;;;;5032353;28;20468;-69
2022/04/18 01:31:29;;;;;;;1999.90;999.90;;;9.00;98.10;;;;;;5014302;28;20513;-70
2022/04/18 01:33:55;;;;;;;1999.90;999.90;;;8.90;97.60;;;;;;5031865;28;20406;-67
2022/04/18 01:36:21;;;;;;;1999.90;999.90;;;8.90;98.30;;;;;;5031637;28;20828;-68
2022/04/18 01:38:46;;;;;;;1999.90;999.90;;;8.90;99.90;;;;;;5031897;28;20445;-70
2022/04/18 01:41:12;;;;;;;1999.90;999.90;;;8.80;99.90;;;;;;5031945;28;20194;-70
2022/04/18 01:43:38;;;;;;;1999.90;999.90;;;8.80;99.90;;;;;;5031985;28;20637;-68
2022/04/18 01:46:03;;;;;;;1999.90;999.90;;;8.70;99.90;;;;;;5031512;28;20194;-67
2022/04/18 01:48:29;;;;;;;1999.90;999.90;;;8.70;99.90;;;;;;5031808;28;20250;-68
2022/04/18 01:50:54;;;;;;;1999.90;999.90;;;8.70;99.90;;;;;;5031763;28;20233;-68
2022/04/18 01:53:20;;;;;;;1999.90;999.90;;;8.70;99.90;;;;;;5032026;28;20182;-68
2022/04/18 01:55:45;;;;;;;1999.90;999.90;;;8.70;99.90;;;;;;5031211;28;20198;-68
2022/04/18 01:58:11;;;;;;;1999.90;999.90;;;8.70;99.90;;;;;;5031835;28;20257;-68
2022/04/18 02:00:37;;;;;;;1999.90;999.90;;;8.70;99.90;;;;;;5031673;28;20218;-68
2022/04/18 02:03:03;;;;;;;1999.90;999.90;;;8.70;99.90;;;;;;5031737;28;20256;-68
2022/04/18 02:05:29;;;;;;;1999.90;999.90;;;8.70;99.90;;;;;;5031222;28;20510;-67
2022/04/18 02:07:54;;;;;;;1999.90;999.90;;;8.60;99.90;;;;;;5031732;28;20185;-67
2022/04/18 02:10:20;;;;;;;1999.90;999.90;;;8.60;99.90;;;;;;5031629;28;20277;-68
2022/04/18 02:12:45;;;;;;;1999.90;999.90;;;8.50;99.90;;;;;;5031656;28;20232;-68
2022/04/18 02:15:11;;;;;;;1999.90;999.90;;;8.50;99.90;;;;;;5031289;28;20181;-67
2022/04/18 02:17:37;;;;;;;1999.90;999.90;;;8.40;99.90;;;;;;5034879;28;20210;-68
2022/04/18 02:20:03;;;;;;;1999.90;999.90;;;8.40;99.90;;;;;;5035442;28;20256;-70
2022/04/18 02:22:30;;;;;;;1999.90;999.90;;;8.30;99.90;;;;;;5035367;28;20628;-68
2022/04/18 02:24:57;;;;;;;1999.90;999.90;;;8.20;99.90;;;;;;5035249;28;20419;-68
2022/04/18 02:27:23;;;;;;;1999.90;999.90;;;8.00;99.90;;;;;;5035539;28;20420;-69
2022/04/18 02:29:49;;;;;;;1999.90;999.90;;;8.00;99.90;;;;;;5035248;28;20416;-68
2022/04/18 02:34:58;;;;;;;1999.90;999.90;;;8.00;99.90;;;;;;5035190;28;20184;-70
2022/04/18 02:37:24;;;;;;;1999.90;999.90;;;8.00;99.90;;;;;;5034950;28;20452;-68
2022/04/18 02:39:49;;;;;;;1999.90;999.90;;;8.00;99.90;;;;;;5034981;28;20177;-69
2022/04/18 02:42:17;;;;;;;1999.90;999.90;;;7.80;99.90;;;;;;5035087;28;20173;-70
2022/04/18 02:44:45;;;;;;;1999.90;999.90;;;7.80;99.90;;;;;;5034697;28;20190;-68
2022/04/18 02:47:11;;;;;;;1999.90;999.90;;;7.80;99.90;;;;;;5034822;28;20526;-71
2022/04/18 02:49:37;;;;;;;1999.90;999.90;;;7.80;99.90;;;;;;5034886;28;20506;-70
2022/04/18 02:52:03;;;;;;;1999.90;999.90;;;7.80;99.90;;;;;;5034841;28;20789;-70
2022/04/18 02:54:29;;;;;;;1999.90;999.90;;;7.90;99.90;;;;;;5034422;28;20211;-70
2022/04/18 02:56:55;;;;;;;1999.90;999.90;;;7.80;99.90;;;;;;5034499;28;20508;-70
2022/04/18 02:59:20;;;;;;;1999.90;999.90;;;7.90;99.90;;;;;;5034753;28;20260;-70
2022/04/18 03:01:46;;;;;;;1999.90;999.90;;;7.90;99.90;;;;;;5034553;28;20176;-70
2022/04/18 03:04:12;;;;;;;1999.90;999.90;;;7.90;99.90;;;;;;5034271;28;20200;-70
2022/04/18 03:06:37;;;;;;;1999.90;999.90;;;7.90;99.90;;;;;;5034627;28;20542;-70
2022/04/18 03:09:03;;;;;;;1999.90;999.90;;;7.80;99.90;;;;;;5034449;28;20289;-71
2022/04/18 03:11:28;;;;;;;1999.90;999.90;;;7.90;99.90;;;;;;5034466;28;20174;-71
2022/04/18 03:13:55;;;;;;;1999.90;999.90;;;7.80;99.90;;;;;;5034501;28;20230;-71
2022/04/18 03:16:21;;;;;;;1999.90;999.90;;;7.80;99.90;;;;;;5033981;28;20197;-71
2022/04/18 03:18:46;;;;;;;1999.90;999.90;;;7.80;99.90;;;;;;5035753;28;20434;-70
2022/04/18 03:21:13;;;;;;;1999.90;999.90;;;7.80;99.90;;;;;;5035818;28;20166;-70
2022/04/18 03:23:39;;;;;;;1999.90;999.90;;;7.90;99.90;;;;;;5036055;28;20182;-69
2022/04/18 03:26:06;;;;;;;1999.90;999.90;;;7.80;99.90;;;;;;5035329;28;20428;-70
2022/04/18 03:28:32;;;;;;;1999.90;999.90;;;7.80;99.90;;;;;;5034605;28;20832;-70
2022/04/18 03:30:58;;;;;;;1999.90;999.90;;;7.80;99.90;;;;;;5036092;28;21098;-70
2022/04/18 03:33:23;;;;;;;1999.90;999.90;;;7.60;99.90;;;;;;5035269;28;20471;-70
2022/04/18 03:41:17;;;;;;;1999.90;999.90;;;7.60;99.90;;;;;;5035114;28;20411;-70
2022/04/18 03:43:43;;;;;;;1999.90;999.90;;;7.60;99.90;;;;;;5034998;28;20405;-70
2022/04/18 03:46:09;;;;;;;1999.90;999.90;;;7.70;99.90;;;;;;5034281;28;20198;-70
2022/04/18 03:48:34;;;;;;;1999.90;999.90;;;7.60;99.90;;;;;;5034586;28;20547;-70
2022/04/18 03:51:00;;;;;;;1999.90;999.90;;;7.70;99.90;;;;;;5034864;28;20668;-70
2022/04/18 03:53:26;;;;;;;1999.90;999.90;;;7.60;99.90;;;;;;5034669;28;20542;-69
2022/04/18 03:55:51;;;;;;;1999.90;999.90;;;7.40;99.90;;;;;;5034096;28;20289;-70
2022/04/18 03:58:17;;;;;;;1999.90;999.90;;;7.40;99.90;;;;;;5034623;28;20420;-70
2022/04/18 04:00:43;;;;;;;1999.90;999.90;;;7.40;99.90;;;;;;5034480;28;20666;-69
2022/04/18 04:03:10;;;;;;;1999.90;999.90;;;7.40;99.90;;;;;;5035111;28;20227;-69
2022/04/18 04:05:36;;;;;;;1999.90;999.90;;;7.40;99.90;;;;;;5034897;28;20228;-69
2022/04/18 04:08:02;;;;;;;1999.90;999.90;;;7.30;99.90;;;;;;5035584;28;20422;-68
2022/04/18 04:10:28;;;;;;;1999.90;999.90;;;7.20;99.90;;;;;;5036227;28;20424;-69
2022/04/18 04:12:53;;;;;;;1999.90;999.90;;;7.20;99.90;;;;;;5035481;28;20169;-69
2022/04/18 04:15:19;;;;;;;1999.90;999.90;;;7.10;99.90;;;;;;5034947;28;20256;-69
2022/04/18 04:17:44;;;;;;;1999.90;999.90;;;7.00;99.90;;;;;;5034936;28;20232;-69
2022/04/18 04:20:11;;;;;;;1999.90;999.90;;;7.00;99.90;;;;;;5034522;28;20534;-69
2022/04/18 04:22:36;;;;;;;1999.90;999.90;;;7.00;99.90;;;;;;5034132;28;20168;-68
2022/04/18 04:25:02;;;;;;;1999.90;999.90;;;7.10;99.90;;;;;;5034325;28;20438;-68
2022/04/18 04:27:30;;;;;;;1999.90;999.90;;;7.10;99.90;;;;;;5035080;28;20223;-69
2022/04/18 04:29:56;;;;;;;1999.90;999.90;;;7.10;99.90;;;;;;5035033;28;20178;-69
2022/04/18 04:32:23;;;;;;;1999.90;999.90;;;7.00;99.90;;;;;;5034277;28;20416;-69
2022/04/18 04:34:50;;;;;;;1999.90;999.90;;;7.00;99.90;;;;;;5033997;28;20433;-69
2022/04/18 04:37:16;;;;;;;1999.90;999.90;;;6.90;99.90;;;;;;5034316;28;20545;-69
2022/04/18 04:39:42;;;;;;;1999.90;999.90;;;6.70;99.90;;;;;;5034328;28;20864;-69
2022/04/18 04:42:07;;;;;;;1999.90;999.90;;;6.70;99.90;;;;;;5034755;28;20438;-69
2022/04/18 04:44:33;;;;;;;1999.90;999.90;;;6.70;99.90;;;;;;5034621;28;20176;-69
2022/04/18 04:46:59;;;;;;;1999.90;999.90;;;6.70;99.90;;;;;;5034836;28;20184;-69
2022/04/18 04:49:24;;;;;;;1999.90;999.90;;;6.70;99.90;;;;;;5035073;28;20194;-68
2022/04/18 04:51:50;;;;;;;1999.90;999.90;;;6.60;99.90;;;;;;5034154;28;20638;-69
2022/04/18 04:54:15;;;;;;;1999.90;999.90;;;6.80;99.90;;;;;;5034319;28;20561;-69
2022/04/18 04:56:41;;;;;;;1999.90;999.90;;;6.90;99.90;;;;;;5034242;28;20204;-68
2022/04/18 04:59:07;;;;;;;1999.90;999.90;;;6.90;99.90;;;;;;5034155;28;20162;-69
2022/04/18 05:01:33;;;;;;;1999.90;999.90;;;7.00;99.90;;;;;;5034332;28;20178;-69
2022/04/18 05:03:59;;;;;;;1999.90;999.90;;;7.00;99.90;;;;;;5033711;28;20410;-68
2022/04/18 05:06:24;;;;;;;1999.90;999.90;;;7.10;99.90;;;;;;5033613;28;20423;-69
2022/04/18 05:08:50;;;;;;;1999.90;999.90;;;7.10;99.90;;;;;;5033721;28;20328;-69
2022/04/18 05:11:16;;;;;;;1999.90;999.90;;;7.10;99.90;;;;;;5033740;28;20180;-69
2022/04/18 05:13:41;;;;;;;1999.90;999.90;;;7.10;99.90;;;;;;5033709;28;20178;-68
2022/04/18 05:16:07;;;;;;;1999.90;999.90;;;7.10;99.90;;;;;;5033585;28;20279;-69
2022/04/18 05:18:32;;;;;;;1999.90;999.90;;;7.20;99.90;;;;;;5033750;28;20173;-69
2022/04/18 05:20:58;;;;;;;1999.90;999.90;;;7.30;99.90;;;;;;5033813;28;20166;-68
2022/04/18 05:23:24;;;;;;;1999.90;999.90;;;7.30;99.90;;;;;;5033652;28;20175;-68
2022/04/18 05:25:49;;;;;;;1999.90;999.90;;;7.40;99.90;;;;;;5033577;28;20215;-69
2022/04/18 05:28:15;;;;;;;1999.90;999.90;;;7.40;99.90;;;;;;5033594;28;20406;-69
2022/04/18 05:30:41;;;;;;;1999.90;999.90;;;7.50;99.90;;;;;;5033706;28;20552;-69
2022/04/18 05:33:07;;;;;;;1999.90;999.90;;;7.60;99.90;;;;;;5033291;28;20170;-69
2022/04/18 05:35:33;;;;;;;1999.90;999.90;;;7.60;99.90;;;;;;5032400;28;20419;-70
2022/04/18 05:37:59;;;;;;;1999.90;999.90;;;7.60;99.90;;;;;;5032906;28;20540;-69
2022/04/18 05:40:24;;;;;;;1999.90;999.90;;;7.70;99.90;;;;;;5033006;28;20479;-68
2022/04/18 05:42:51;;;;;;;1999.90;999.90;;;7.70;99.90;;;;;;5032740;28;20170;-69
2022/04/18 05:45:17;;;;;;;1999.90;999.90;;;7.80;99.90;;;;;;5031809;28;20169;-69
2022/04/18 05:47:43;;;;;;;1999.90;999.90;;;7.80;99.90;;;;;;5031828;28;20435;-69
2022/04/18 05:50:08;;;;;;;1999.90;999.90;;;7.90;99.90;;;;;;5031887;28;20977;-69
2022/04/18 05:52:34;;;;;;;1999.90;999.90;;;8.00;99.90;;;;;;5035395;28;20170;-69
2022/04/18 05:54:59;;;;;;;1999.90;999.90;;;8.00;99.90;;;;;;5035822;28;20181;-68
2022/04/18 05:57:25;;;;;;;1999.90;999.90;;;8.10;99.90;;;;;;5035975;28;20210;-69
2022/04/18 05:59:51;;;;;;;1999.90;999.90;;;8.20;99.90;;;;;;5036430;28;20204;-69
2022/04/18 06:02:16;;;;;;;1999.90;999.90;;;8.30;99.90;;;;;;5036253;28;20261;-69
2022/04/18 06:04:42;;;;;;;1999.90;999.90;;;8.40;99.90;;;;;;5036671;28;20221;-69
2022/04/18 06:07:08;;;;;;;1999.90;999.90;;;8.40;99.90;;;;;;5036394;28;20206;-69
2022/04/18 06:09:33;;;;;;;1999.90;999.90;;;8.50;99.90;;;;;;5036238;28;20256;-69
2022/04/18 06:11:59;;;;;;;1999.90;999.90;;;8.50;99.90;;;;;;5036408;28;20176;-68
2022/04/18 06:14:24;;;;;;;1999.90;999.90;;;8.60;99.90;;;;;;5036095;28;20179;-69
2022/04/18 06:16:50;;;;;;;1999.90;999.90;;;8.70;99.90;;;;;;5036024;28;20563;-69
2022/04/18 06:19:16;;;;;;;1999.90;999.90;;;8.80;99.90;;;;;;5036080;28;20193;-69
2022/04/18 06:21:41;;;;;;;1999.90;999.90;;;8.90;99.90;;;;;;5036020;28;20179;-69
2022/04/18 06:24:07;;;;;;;1999.90;999.90;;;9.00;99.90;;;;;;5035399;28;20174;-69
2022/04/18 06:26:33;;;;;;;1999.90;999.90;;;9.00;99.90;;;;;;5036283;28;20194;-69
2022/04/18 06:28:58;;;;;;;1999.90;999.90;;;9.10;99.90;;;;;;5036098;28;20209;-69
2022/04/18 06:31:24;;;;;;;1999.90;999.90;;;9.20;99.90;;;;;;5036394;28;20744;-69
2022/04/18 06:33:50;;;;;;;1999.90;999.90;;;9.30;99.90;;;;;;5035266;28;20183;-70
2022/04/18 06:36:15;;;;;;;1999.90;999.90;;;9.40;99.90;;;;;;5034654;28;20452;-70
2022/04/18 06:38:41;;;;;;;1999.90;999.90;;;9.60;99.90;;;;;;5035038;28;20454;-70
2022/04/18 06:41:08;;;;;;;1999.90;999.90;;;9.70;99.90;;;;;;5035134;28;20172;-70
2022/04/18 06:43:34;;;;;;;1999.90;999.90;;;9.70;99.90;;;;;;5035019;28;20249;-70
2022/04/18 06:45:59;;;;;;;1999.90;999.90;;;9.80;99.90;;;;;;5034642;28;20533;-70
2022/04/18 06:48:25;;;;;;;1999.90;999.90;;;9.90;99.90;;;;;;5034850;28;20249;-70
2022/04/18 06:50:51;;;;;;;1999.90;999.90;;;10.10;99.90;;;;;;5034761;28;20601;-70
2022/04/18 06:53:17;;;;;;;1999.90;999.90;;;10.20;99.90;;;;;;5035011;28;20183;-70
2022/04/18 06:58:27;;;;;;;1999.90;999.90;;;10.50;99.90;;;;;;5035235;28;20727;-69
2022/04/18 07:00:52;;;;;;;1999.90;999.90;;;10.70;99.90;;;;;;5034711;28;20394;-70
2022/04/18 07:03:18;;;;;;;1999.90;999.90;;;10.80;99.90;;;;;;5034336;28;20172;-70
2022/04/18 07:05:44;;;;;;;1999.90;999.90;;;10.90;99.90;;;;;;5034447;28;20214;-69
2022/04/18 07:08:10;;;;;;;1999.90;999.90;;;11.00;99.90;;;;;;5034548;28;20196;-69
2022/04/18 07:10:35;;;;;;;1999.90;999.90;;;11.10;99.90;;;;;;5034963;28;20689;-69
2022/04/18 07:13:01;;;;;;;1999.90;999.90;;;11.20;99.90;;;;;;5034540;28;20500;-69
2022/04/18 07:15:27;;;;;;;1999.90;999.90;;;11.30;99.90;;;;;;5034778;28;20233;-69
2022/04/18 07:17:52;;;;;;;1999.90;999.90;;;11.30;99.90;;;;;;5035131;28;20665;-69
2022/04/18 07:20:18;;;;;;;1999.90;999.90;;;11.30;99.90;;;;;;5034520;28;20178;-69
2022/04/18 07:22:44;;;;;;;1999.90;999.90;;;11.40;99.90;;;;;;5034296;28;20254;-70
2022/04/18 07:25:09;;;;;;;1999.90;999.90;;;11.40;99.90;;;;;;5034089;28;20410;-69
2022/04/18 07:27:36;;;;;;;1999.90;999.90;;;11.40;99.90;;;;;;5034167;28;20397;-70
2022/04/18 07:30:03;;;;;;;1999.90;999.90;;;11.60;99.90;;;;;;5034115;28;20180;-70
2022/04/18 07:32:29;;;;;;;1999.90;999.90;;;11.70;99.90;;;;;;5033999;28;20419;-70
2022/04/18 07:34:59;;;;;;;1999.90;999.90;;;11.80;99.90;;;;;;5033758;28;20409;-70
2022/04/18 07:37:25;;;;;;;1999.90;999.90;;;12.00;99.90;;;;;;5033907;28;20479;-70
2022/04/18 07:39:51;;;;;;;1999.90;999.90;;;12.10;99.90;;;;;;5034056;28;20418;-70
2022/04/18 07:42:17;;;;;;;1999.90;999.90;;;12.20;99.90;;;;;;5033961;28;20175;-69
2022/04/18 07:44:42;;;;;;;1999.90;999.90;;;12.30;99.90;;;;;;5034043;28;20168;-69
2022/04/18 07:47:08;;;;;;;1999.90;999.90;;;12.40;99.90;;;;;;5033687;28;20418;-69
2022/04/18 07:49:33;;;;;;;1999.90;999.90;;;12.60;99.90;;;;;;5034058;28;20226;-69
2022/04/18 07:51:59;;;;;;;1999.90;999.90;;;12.70;99.90;;;;;;5033793;28;20180;-69
2022/04/18 07:54:24;;;;;;;1999.90;999.90;;;12.80;99.90;;;;;;5033638;28;20576;-69
2022/04/18 07:56:50;;;;;;;1999.90;999.90;;;12.80;99.90;;;;;;5033449;28;20301;-69
2022/04/18 07:59:15;;;;;;;1999.90;999.90;;;13.00;99.90;;;;;;5033911;28;20187;-70
2022/04/18 08:01:43;;;;;;;1999.90;999.90;;;13.10;99.90;;;;;;5033567;28;20177;-69
2022/04/18 08:04:08;;;;;;;1999.90;999.90;;;13.20;99.90;;;;;;5033363;28;20171;-70
2022/04/18 08:06:34;;;;;;;1999.90;999.90;;;13.20;99.90;;;;;;5033407;28;20909;-69
2022/04/18 08:09:00;;;;;;;1999.90;999.90;;;13.40;99.90;;;;;;5033680;28;20213;-69
2022/04/18 08:11:26;;;;;;;1999.90;999.90;;;13.50;99.90;;;;;;5033304;28;20173;-69
2022/04/18 08:13:53;;;;;;;1999.90;999.90;;;13.60;99.90;;;;;;5030685;28;20438;-68
2022/04/18 08:16:19;;;;;;;1999.90;999.90;;;13.70;98.70;;;;;;5032192;28;20742;-68
2022/04/18 08:18:45;;;;;;;1999.90;999.90;;;13.70;98.00;;;;;;5033196;28;20447;-69
2022/04/18 08:21:12;;;;;;;1999.90;999.90;;;13.70;99.30;;;;;;5033384;28;20468;-69
2022/04/18 08:23:38;;;;;;;1999.90;999.90;;;13.90;99.00;;;;;;5028601;28;20407;-68
2022/04/18 08:26:04;;;;;;;1999.90;999.90;;;14.00;96.60;;;;;;5031808;28;20935;-68
2022/04/18 08:28:31;;;;;;;1999.90;999.90;;;14.00;94.20;;;;;;5032551;28;20805;-68
2022/04/18 08:30:57;;;;;;;1999.90;999.90;;;14.10;94.80;;;;;;5031245;28;20527;-69
2022/04/18 08:33:23;;;;;;;1999.90;999.90;;;14.20;95.10;;;;;;5032505;28;20478;-69
2022/04/18 08:35:49;;;;;;;1999.90;999.90;;;14.40;95.40;;;;;;5031407;28;20439;-69
2022/04/18 08:38:15;;;;;;;1999.90;999.90;;;14.40;93.80;;;;;;5031977;28;20466;-69
2022/04/18 08:40:47;;;;;;;1999.90;999.90;;;14.50;92.60;;;;;;5032414;28;20914;-69
2022/04/18 08:43:12;;;;;;;1999.90;999.90;;;14.60;93.70;;;;;;5012609;28;20214;-69
2022/04/18 08:45:39;;;;;;;1999.90;999.90;;;14.70;91.30;;;;;;5028865;28;20440;-68
2022/04/18 08:53:36;;;;;;;1999.90;999.90;;;15.00;87.50;;;;;;5032334;28;20456;-67
2022/04/18 08:56:02;;;;;;;1999.90;999.90;;;15.20;85.50;;;;;;5030324;28;20469;-69
2022/04/18 08:58:28;;;;;;;1999.90;999.90;;;15.20;87.00;;;;;;5031260;28;20592;-68
2022/04/18 09:00:56;;;;;;;1999.90;999.90;;;15.30;86.40;;;;;;5031800;28;20965;-68
2022/04/18 09:03:22;;;;;;;1999.90;999.90;;;15.50;84.10;;;;;;5032003;28;20411;-68
2022/04/18 09:05:48;;;;;;;1999.90;999.90;;;15.60;79.70;;;;;;5031112;28;20443;-69
2022/04/18 09:08:14;;;;;;;1999.90;999.90;;;15.70;78.60;;;;;;5031548;28;20420;-69
2022/04/18 09:10:41;;;;;;;1999.90;999.90;;;15.70;67.90;;;;;;5031951;28;21151;-69
2022/04/18 09:13:10;;;;;;;1999.90;999.90;;;15.80;67.40;;;;;;5032359;28;20178;-68
2022/04/18 09:15:42;;;;;;;1999.90;999.90;;;15.90;71.90;;;;;;5030953;28;20505;-69
2022/04/18 09:18:17;;;;;;;1999.90;999.90;;;16.00;75.60;;;;;;5032151;28;20449;-69
2022/04/18 09:20:43;;;;;;;1999.90;999.90;;;16.20;61.00;;;;;;5032109;28;20448;-69
2022/04/18 09:23:39;;;;;;;1999.90;999.90;;;16.30;68.30;;;;;;5032289;28;20881;-69
2022/04/18 09:26:08;;;;;;;1999.90;999.90;;;16.40;69.70;;;;;;5018094;28;20438;-68
2022/04/18 09:28:34;;;;;;;1999.90;999.90;;;16.50;67.80;;;;;;5030360;28;20405;-69
2022/04/18 09:31:01;;;;;;;1999.90;999.90;;;16.60;64.00;;;;;;5031618;28;20486;-69
2022/04/18 09:33:53;;;;;;;1999.90;999.90;;;16.70;57.10;;;;;;5031820;28;20409;-69
2022/04/18 09:36:21;;;;;;;1999.90;999.90;;;16.70;56.40;;;;;;5011171;28;20504;-69
2022/04/18 09:38:50;;;;;;;1999.90;999.90;;;16.70;58.80;;;;;;5022764;28;20443;-69
2022/04/18 09:41:22;;;;;;;1999.90;999.90;;;16.80;55.40;;;;;;5031818;28;20415;-69
2022/04/18 09:43:49;;;;;;;1999.90;999.90;;;16.90;55.90;;;;;;5031641;28;20904;-69
2022/04/18 09:46:15;;;;;;;1999.90;999.90;;;17.00;54.10;;;;;;5029605;28;20528;-68
2022/04/18 09:48:45;;;;;;;1999.90;999.90;;;17.20;62.10;;;;;;5031439;28;20426;-68
2022/04/18 09:51:13;;;;;;;1999.90;999.90;;;17.30;53.10;;;;;;5027367;28;20554;-68
2022/04/18 09:53:41;;;;;;;1999.90;999.90;;;17.40;53.30;;;;;;5031371;28;20407;-68
2022/04/18 09:56:08;;;;;;;1999.90;999.90;;;17.50;52.10;;;;;;5030417;28;20474;-68
2022/04/18 09:58:35;;;;;;;1999.90;999.90;;;17.60;50.20;;;;;;5030891;28;20561;-68
2022/04/18 10:01:04;;;;;;;1999.90;999.90;;;17.60;45.40;;;;;;5031454;28;20420;-70
2022/04/18 10:03:30;;;;;;;1999.90;999.90;;;17.80;51.20;;;;;;5031299;28;20794;-69
2022/04/18 10:05:58;;;;;;;1999.90;999.90;;;18.00;45.50;;;;;;5030277;28;20431;-69
2022/04/18 10:08:24;;;;;;;1999.90;999.90;;;18.10;45.10;;;;;;5031351;28;20919;-69
2022/04/18 10:10:50;;;;;;;1999.90;999.90;;;18.20;46.80;;;;;;5031845;28;20897;-69
2022/04/18 10:13:16;;;;;;;1999.90;999.90;;;18.20;42.70;;;;;;5031644;28;20403;-69
2022/04/18 10:15:42;;;;;;;1999.90;999.90;;;18.40;46.20;;;;;;5031377;28;20776;-69
2022/04/18 10:18:10;;;;;;;1999.90;999.90;;;18.50;41.30;;;;;;5032317;28;20806;-69
2022/04/18 10:20:49;;;;;;;1999.90;999.90;;;18.50;40.00;;;;;;5031580;28;20902;-69
2022/04/18 10:23:39;;;;;;;1999.90;999.90;;;18.50;40.10;;;;;;5024802;28;20465;-69
2022/04/18 10:26:19;;;;;;;1999.90;999.90;;;18.50;34.70;;;;;;5031304;28;20789;-69
2022/04/18 10:28:47;;;;;;;1999.90;999.90;;;18.60;36.00;;;;;;5031614;28;20412;-69
2022/04/18 10:31:34;;;;;;;1999.90;999.90;;;18.80;36.30;;;;;;5031831;28;20834;-69
2022/04/18 10:34:00;;;;;;;1999.90;999.90;;;19.00;34.90;;;;;;5031772;28;20402;-69
2022/04/18 10:36:28;;;;;;;1999.90;999.90;;;19.10;31.40;;;;;;5031543;28;20455;-69
2022/04/18 10:38:55;;;;;;;1999.90;999.90;;;19.20;35.20;;;;;;5037457;28;20408;-69
2022/04/18 10:41:34;;;;;;;1999.90;999.90;;;19.30;33.00;;;;;;5037047;28;20436;-69
2022/04/18 10:44:02;;;;;;;1999.90;999.90;;;19.40;28.40;;;;;;5035477;28;20404;-69
2022/04/18 10:46:28;;;;;;;1999.90;999.90;;;19.40;31.80;;;;;;5036139;28;20506;-69
2022/04/18 10:48:58;;;;;;;1999.90;999.90;;;19.60;29.00;;;;;;5036631;28;20428;-69
2022/04/18 10:51:28;;;;;;;1999.90;999.90;;;19.70;26.20;;;;;;5036690;28;20504;-69
2022/04/18 10:54:16;;;;;;;1999.90;999.90;;;19.60;26.50;;;;;;5036097;28;20914;-69
2022/04/18 10:56:49;;;;;;;1999.90;999.90;;;19.70;25.80;;;;;;5035723;28;20443;-69
2022/04/18 10:59:15;;;;;;;1999.90;999.90;;;19.80;24.50;;;;;;5034763;28;20463;-69
2022/04/18 11:01:42;;;;;;;1999.90;999.90;;;20.10;27.20;;;;;;5035327;28;20414;-69
2022/04/18 11:04:12;;;;;;;1999.90;999.90;;;20.20;25.70;;;;;;5034484;28;20412;-69
2022/04/18 11:06:38;;;;;;;1999.90;999.90;;;20.20;25.70;;;;;;5034793;28;20433;-69
2022/04/18 11:09:13;;;;;;;1999.90;999.90;;;20.10;22.10;;;;;;5034845;28;20439;-69
2022/04/18 11:12:08;;;;;;;1999.90;999.90;;;20.30;23.90;;;;;;5035100;28;20895;-67
2022/04/18 11:15:01;;;;;;;1999.90;999.90;;;20.50;21.80;;;;;;5034322;28;20419;-69
2022/04/18 11:17:40;;;;;;;1999.90;999.90;;;20.70;23.20;;;;;;5034223;28;20470;-69
2022/04/18 11:20:27;;;;;;;1999.90;999.90;;;21.00;24.40;;;;;;5034343;28;20422;-69
2022/04/18 11:23:14;;;;;;;1999.90;999.90;;;21.20;20.40;;;;;;5034764;28;20394;-69
2022/04/18 11:25:50;;;;;;;1999.90;999.90;;;21.20;22.10;;;;;;5033982;28;20435;-69
2022/04/18 11:28:16;;;;;;;1999.90;999.90;;;21.30;19.20;;;;;;5034141;28;20399;-69
2022/04/18 11:30:41;;;;;;;1999.90;999.90;;;21.40;21.60;;;;;;5034531;28;20412;-69
2022/04/18 11:33:07;;;;;;;1999.90;999.90;;;21.60;21.00;;;;;;5034659;28;20417;-69
2022/04/18 11:35:34;;;;;;;1999.90;999.90;;;21.50;19.40;;;;;;5033235;28;20259;-69
2022/04/18 11:38:07;;;;;;;1999.90;999.90;;;21.50;22.10;;;;;;5034566;28;20200;-69
2022/04/18 11:40:36;;;;;;;1999.90;999.90;;;21.50;20.00;;;;;;5034353;28;20393;-69
2022/04/18 11:43:09;;;;;;;1999.90;999.90;;;21.50;19.30;;;;;;5033626;28;20403;-69
2022/04/18 11:45:34;;;;;;;1999.90;999.90;;;21.50;18.10;;;;;;5033615;28;20474;-67
2022/04/18 11:48:02;;;;;;;1999.90;999.90;;;21.60;19.70;;;;;;5033739;28;20824;-69
2022/04/18 11:50:29;;;;;;;1999.90;999.90;;;21.80;18.00;;;;;;5032716;28;20186;-69
2022/04/18 11:53:02;;;;;;;1999.90;999.90;;;22.20;19.70;;;;;;5034402;28;20466;-69
2022/04/18 11:55:28;;;;;;;1999.90;999.90;;;22.80;18.70;;;;;;5032939;28;20422;-69
2022/04/18 11:57:54;;;;;;;1999.90;999.90;;;23.20;18.20;;;;;;5032992;28;20449;-69
2022/04/18 12:08:48;;;;;;;1999.90;999.90;;;25.70;12.30;;;;;;5034666;28;20431;-65
2022/04/18 12:11:14;;;;;;;1999.90;999.90;;;25.90;9.00;;;;;;5033685;28;20393;-64
2022/04/18 12:13:49;;;;;;;1999.90;999.90;;;26.40;10.80;;;;;;5034544;28;20382;-64
2022/04/18 12:16:18;;;;;;;1999.90;999.90;;;27.20;8.60;;;;;;5033845;28;20393;-64
2022/04/18 12:18:45;;;;;;;1999.90;999.90;;;27.40;6.80;;;;;;5034406;28;20406;-65
2022/04/18 12:21:14;;;;;;;1999.90;999.90;;;27.50;8.30;;;;;;5034538;28;20517;-65
2022/04/18 12:23:39;;;;;;;1999.90;999.90;;;27.90;9.30;;;;;;5034992;28;20419;-65
2022/04/18 12:26:11;;;;;;;1999.90;999.90;;;28.40;8.50;;;;;;5033879;28;20851;-65
2022/04/18 12:28:38;;;;;;;1999.90;999.90;;;29.00;5.90;;;;;;5034060;28;20410;-66
2022/04/18 12:31:10;;;;;;;1999.90;999.90;;;29.20;5.70;;;;;;5033045;28;20391;-67